Kezdőlap
METAR-TAF:

METAR-TAF

Repülőterek :

Savonlinna, Finnország

földrajzi szélesség: 61-57N, földrajzi hosszúság: 028-57E, magasság: 95 m

Jelenlegi meteorológiai megfigyelések

A jelentés 9 perccel ezelõtt készült, 10:20 UTC
Dél-délnyugati szél 3 kt
Hőmérséklet 6°C
Páratartalom 70%
Légköri nyomás 993 hPa
Látótávolság 10 km, vagy több
Szakadozott felhőzet 1700 lábon

METAR: EFSA 231020Z AUTO 21003KT 9999 BKN017 06/01 Q0993

Idő: 13:29 (10:29 UTC)

Előrejelzés

A jelentés 2 órával és 2 perccel ezelõtt készült, 08:27 UTC
Az előrejelzés 23-én 09 óra UTC és 23-én 18 óra UTC között érvényes
Nyugat-délnyugati szél 5 kt
Látótávolság 10 km, vagy több
Kevés felhő 900 lábon
Szakadozott felhőzet 3000 lábon
23-én 09 óra UTC és 23-én 12 óra UTC között ideiglenes
Szakadozott felhőzet 900 lábon

TAF: EFSA 230827Z 2309/2318 24005KT 9999 FEW009 BKN030 TEMPO 2309/2312 BKN009

Meteorológiai megfigyelések és előrejelzések több, mint 4000 repülőtéren (METAR és TAF jelentéseket).

A térképen piros és sárga pontok jelzik az elérhető meteorológiai állomásokat.

Mozgassa az egeret a pont fölött, hogy megjelenjen az állomás neve.

Azután kattintson az időjárási megfigyelések és előrejelzések megtekintéséhez.

A térkép megváltoztatása: kattintson a fekete keresztel jelölt zöld gombra ráközelítéshez, a vonallal jelölt zöld gombra távolításhoz, vagy a zöld nyilakra a szomszédos térképek eléréséhez.


METAR-TAF: